Time;durP1;ratioP1;P1;durP2;ratioP2;P2;SDS_P1;SDS_P2;PMS_P1;PMS_P2;Temp;Humidity;BMP_temperature;BMP_pressure;BME280_temperature;BME280_humidity;BME280_pressure;Samples;Min_cycle;Max_cycle;Signal;HPM_P1;HPM_P2
2022/03/09 00:02:17;;;;;;;25.40;12.40;;;;;;;-3.32;79.12;102201.25;5097640;28;20414;-88
2022/03/09 00:04:43;;;;;;;22.10;12.90;;;;;;;-3.32;79.39;102207.31;5097920;28;20043;-88
2022/03/09 00:07:08;;;;;;;19.45;12.57;;;;;;;-3.28;80.23;102214.22;5097275;28;20432;-78
2022/03/09 00:09:34;;;;;;;19.63;12.45;;;;;;;-3.28;79.84;102210.75;5097903;28;20114;-87
2022/03/09 00:12:00;;;;;;;21.08;12.93;;;;;;;-3.29;80.12;102215.09;5098032;28;20036;-87
2022/03/09 00:14:25;;;;;;;25.85;13.65;;;;;;;-3.29;80.12;102214.22;5097626;28;20060;-85
2022/03/09 00:16:50;;;;;;;20.98;13.30;;;;;;;-3.29;80.34;102211.63;5097980;28;20084;-85
2022/03/09 00:19:16;;;;;;;20.38;12.73;;;;;;;-3.30;80.84;102210.78;5097883;28;20035;-86
2022/03/09 00:21:42;;;;;;;19.98;12.82;;;;;;;-3.29;81.12;102215.09;5105342;28;20103;-84
2022/03/09 00:24:07;;;;;;;21.58;12.88;;;;;;;-3.27;80.81;102212.47;5110137;28;20525;-86
2022/03/09 00:26:33;;;;;;;24.45;13.77;;;;;;;-3.24;81.88;102209.81;5112295;28;20066;-85
2022/03/09 00:28:58;;;;;;;24.08;13.55;;;;;;;-3.25;81.50;102206.38;5091317;28;20035;-87
2022/03/09 00:31:23;;;;;;;21.05;13.25;;;;;;;-3.25;81.26;102215.94;5097545;28;20048;-86
2022/03/09 00:33:49;;;;;;;23.70;13.82;;;;;;;-3.25;81.72;102208.97;5098767;28;20106;-87
2022/03/09 00:36:14;;;;;;;20.98;13.00;;;;;;;-3.25;81.95;102213.31;5092369;28;20032;-88
2022/03/09 00:38:39;;;;;;;21.27;13.43;;;;;;;-3.25;81.92;102215.94;5097599;28;20023;-85
2022/03/09 00:41:05;;;;;;;21.50;13.30;;;;;;;-3.23;82.30;102221.97;5114000;28;20031;-87
2022/03/09 00:43:30;;;;;;;24.27;13.32;;;;;;;-3.21;82.57;102228.00;5083340;28;20039;-86
2022/03/09 00:45:56;;;;;;;20.77;12.93;;;;;;;-3.20;82.47;102225.38;5097859;28;20075;-88
2022/03/09 00:48:22;;;;;;;23.33;14.25;;;;;;;-3.20;82.04;102230.59;5098072;28;20055;-85
2022/03/09 00:50:47;;;;;;;26.25;12.80;;;;;;;-3.22;82.24;102234.13;5098464;28;20063;-87
2022/03/09 00:53:13;;;;;;;25.02;12.32;;;;;;;-3.25;81.80;102231.56;5098147;28;20512;-78
2022/03/09 00:55:39;;;;;;;23.02;13.15;;;;;;;-3.27;82.19;102235.88;5078967;28;20078;-87
2022/03/09 00:58:05;;;;;;;19.38;12.93;;;;;;;-3.29;82.30;102248.94;5096711;28;20024;-87
2022/03/09 01:00:30;;;;;;;23.65;12.45;;;;;;;-3.31;81.71;102236.78;5097331;28;20035;-88
2022/03/09 01:02:55;;;;;;;26.90;13.10;;;;;;;-3.32;81.74;102241.16;5062352;28;20481;-88
2022/03/09 01:05:21;;;;;;;20.42;13.10;;;;;;;-3.35;82.14;102230.78;5097046;28;20418;-85
2022/03/09 01:07:46;;;;;;;22.90;12.98;;;;;;;-3.38;82.15;102231.66;5079073;28;20419;-85
2022/03/09 01:10:12;;;;;;;22.90;12.75;;;;;;;-3.39;82.23;102236.88;5096685;28;20154;-86
2022/03/09 01:12:38;;;;;;;22.60;12.63;;;;;;;-3.40;81.79;102229.97;5096572;28;20467;-88
2022/03/09 01:15:04;;;;;;;23.65;13.73;;;;;;;-3.43;81.80;102237.81;5078283;28;20060;-87
2022/03/09 01:17:31;;;;;;;21.17;12.82;;;;;;;-3.45;82.17;102232.63;5077631;28;20036;-86
2022/03/09 01:19:57;;;;;;;22.63;13.15;;;;;;;-3.45;82.09;102229.13;5077707;28;20046;-85
2022/03/09 01:22:22;;;;;;;24.73;13.10;;;;;;;-3.47;81.98;102236.97;5095593;28;20395;-86
2022/03/09 01:24:48;;;;;;;18.63;12.30;;;;;;;-3.48;81.95;102239.56;5095816;28;20028;-87
2022/03/09 01:27:13;;;;;;;21.60;11.82;;;;;;;-3.51;82.19;102242.22;5095715;28;20036;-86
2022/03/09 01:29:39;;;;;;;23.75;14.45;;;;;;;-3.49;82.65;102237.84;5095610;28;20028;-86
2022/03/09 01:32:04;;;;;;;22.88;12.93;;;;;;;-3.50;83.14;102229.19;5096389;28;20476;-85
2022/03/09 01:34:30;;;;;;;24.27;13.75;;;;;;;-3.49;82.67;102230.91;5096330;28;20432;-86
2022/03/09 01:36:55;;;;;;;22.90;13.90;;;;;;;-3.49;82.53;102230.91;5095710;28;20038;-86
2022/03/09 01:39:21;;;;;;;19.27;12.75;;;;;;;-3.49;82.54;102224.81;5095812;28;20043;-80
2022/03/09 01:41:47;;;;;;;30.95;14.15;;;;;;;-3.50;82.81;102223.97;5095940;28;20032;-87
2022/03/09 01:44:15;;;;;;;22.75;13.52;;;;;;;-3.48;83.15;102224.81;5095013;28;20480;-85
2022/03/09 01:46:41;;;;;;;22.20;12.95;;;;;;;-3.47;82.95;102225.69;5095255;28;20024;-85
2022/03/09 01:49:08;;;;;;;23.45;13.25;;;;;;;-3.47;83.12;102223.94;5076852;28;20028;-86
2022/03/09 01:51:38;;;;;;;21.83;13.70;;;;;;;-3.48;83.42;102214.41;5095025;28;20036;-86
2022/03/09 01:54:04;;;;;;;19.27;12.93;;;;;;;-3.51;83.41;102218.78;5095476;28;20032;-86
2022/03/09 01:56:30;;;;;;;20.80;13.25;;;;;;;-3.51;83.45;102208.38;5077190;28;20024;-86
2022/03/09 01:58:56;;;;;;;24.48;13.38;;;;;;;-3.51;82.99;102214.44;5095094;28;20036;-85
2022/03/09 02:01:22;;;;;;;20.50;13.40;;;;;;;-3.50;83.56;102215.31;5095261;28;20180;-79
2022/03/09 02:03:48;;;;;;;22.10;13.75;;;;;;;-3.50;83.42;102210.13;5094750;28;20536;-86
2022/03/09 02:06:13;;;;;;;20.05;12.38;;;;;;;-3.51;83.61;102210.97;5095154;28;20040;-86
2022/03/09 02:11:24;;;;;;;21.67;13.55;;;;;;;-3.56;83.54;102205.81;5095154;28;20498;-79
2022/03/09 02:13:50;;;;;;;18.70;12.30;;;;;;;-3.59;83.69;102203.25;5077409;28;20032;-85
2022/03/09 02:16:15;;;;;;;25.45;14.00;;;;;;;-3.60;83.38;102206.72;5094634;28;20096;-85
2022/03/09 02:18:41;;;;;;;22.05;13.55;;;;;;;-3.61;82.93;102213.69;5094807;28;20032;-85
2022/03/09 02:21:10;;;;;;;26.02;14.02;;;;;;;-3.63;83.17;102218.00;5096008;28;20028;-85
2022/03/09 02:23:36;;;;;;;23.60;13.25;;;;;;;-3.62;83.62;102218.91;5091456;28;20035;-74
2022/03/09 02:26:01;;;;;;;21.48;13.27;;;;;;;-3.61;83.73;102224.09;5056087;28;20032;-74
2022/03/09 02:28:26;;;;;;;21.77;13.50;;;;;;;-3.63;83.73;102220.63;5072487;28;20408;-75
2022/03/09 02:30:55;;;;;;;21.23;13.75;;;;;;;-3.63;83.46;102215.41;5090644;28;20032;-73
2022/03/09 02:33:21;;;;;;;23.67;13.40;;;;;;;-3.63;83.32;102211.97;5069275;28;20089;-73
2022/03/09 02:35:47;;;;;;;22.42;13.40;;;;;;;-3.63;83.92;102210.22;5070727;28;20416;-74
2022/03/09 02:38:12;;;;;;;22.48;14.10;;;;;;;-3.63;83.91;102206.75;5070736;28;20040;-73
2022/03/09 02:40:38;;;;;;;25.85;14.50;;;;;;;-3.63;83.77;102209.34;5070239;28;20138;-74
2022/03/09 02:43:03;;;;;;;23.00;14.52;;;;;;;-3.64;83.83;102207.63;5070380;28;20445;-74
2022/03/09 02:45:29;;;;;;;22.30;13.90;;;;;;;-3.65;84.85;102206.78;5070106;28;20140;-75
2022/03/09 02:47:56;;;;;;;23.00;14.25;;;;;;;-3.64;84.40;102205.03;5070739;28;20029;-74
2022/03/09 02:50:21;;;;;;;19.17;12.75;;;;;;;-3.63;84.63;102201.56;5070405;28;20093;-74
2022/03/09 02:52:47;;;;;;;20.45;13.23;;;;;;;-3.61;84.36;102192.00;5069538;28;20450;-74
2022/03/09 02:55:13;;;;;;;22.35;13.75;;;;;;;-3.58;84.49;102200.63;5070828;28;20039;-74
2022/03/09 02:57:39;;;;;;;22.15;13.88;;;;;;;-3.55;84.94;102202.34;5070029;28;20031;-74
2022/03/09 03:00:07;;;;;;;22.27;13.30;;;;;;;-3.55;85.50;102199.75;5069869;28;20029;-74
2022/03/09 03:02:34;;;;;;;21.20;12.40;;;;;;;-3.56;84.95;102192.81;5070032;28;20357;-74
2022/03/09 03:04:59;;;;;;;21.08;12.93;;;;;;;-3.58;85.21;102192.84;5070144;28;20119;-74
2022/03/09 03:07:24;;;;;;;23.40;12.82;;;;;;;-3.58;84.92;102197.19;5069891;28;20036;-74
2022/03/09 03:09:50;;;;;;;20.27;12.93;;;;;;;-3.60;84.53;102194.59;5070120;28;20112;-73
2022/03/09 03:12:15;;;;;;;23.55;13.95;;;;;;;-3.61;84.76;102192.00;5068608;28;20468;-74
2022/03/09 03:14:41;;;;;;;23.80;14.18;;;;;;;-3.62;84.68;102192.88;5069649;28;20036;-75
2022/03/09 03:17:06;;;;;;;24.70;13.35;;;;;;;-3.65;84.75;102201.56;5070411;28;20116;-74
2022/03/09 03:19:31;;;;;;;20.63;13.23;;;;;;;-3.68;85.13;102201.59;5069727;28;20124;-76
2022/03/09 03:21:57;;;;;;;19.60;13.07;;;;;;;-3.70;84.44;102203.38;5070268;28;20318;-74
2022/03/09 03:24:22;;;;;;;21.50;13.95;;;;;;;-3.70;84.34;102202.47;5069746;28;20108;-74
2022/03/09 03:26:48;;;;;;;20.85;13.63;;;;;;;-3.70;84.21;102197.28;5069792;28;20437;-75
2022/03/09 03:29:13;;;;;;;20.77;12.93;;;;;;;-3.73;84.64;102195.59;5069960;28;20146;-74
2022/03/09 03:31:38;;;;;;;21.48;13.35;;;;;;;-3.77;84.83;102193.88;5051362;28;20045;-74
2022/03/09 03:34:04;;;;;;;19.98;13.00;;;;;;;-3.82;84.52;102200.84;5069665;28;20087;-75
2022/03/09 03:36:29;;;;;;;22.85;13.60;;;;;;;-3.84;84.13;102200.00;5070122;28;20036;-74
2022/03/09 03:38:54;;;;;;;25.13;13.82;;;;;;;-3.88;84.61;102198.31;5069864;28;20024;-75
2022/03/09 03:41:20;;;;;;;22.17;13.38;;;;;;;-3.92;84.17;102193.13;5068278;28;20307;-75
2022/03/09 03:43:45;;;;;;;22.90;13.65;;;;;;;-3.95;84.33;102198.38;5069408;28;20037;-74
2022/03/09 03:46:11;;;;;;;22.90;12.85;;;;;;;-3.98;84.50;102203.59;5069788;28;20036;-74
2022/03/09 03:48:36;;;;;;;22.88;12.98;;;;;;;-3.99;84.43;102201.00;5068275;28;20127;-76
2022/03/09 03:51:02;;;;;;;20.95;13.25;;;;;;;-4.01;84.90;102201.00;5068352;28;20380;-75
2022/03/09 03:53:27;;;;;;;27.38;13.55;;;;;;;-4.02;85.07;102198.44;5069580;28;20074;-73
2022/03/09 03:55:53;;;;;;;20.77;12.90;;;;;;;-4.04;84.72;102197.59;5070033;28;20032;-73
2022/03/09 03:58:18;;;;;;;20.98;13.43;;;;;;;-4.05;84.37;102203.66;5070054;28;20033;-73
2022/03/09 04:00:44;;;;;;;20.77;13.57;;;;;;;-4.08;84.67;102194.13;5069003;28;20128;-74
2022/03/09 04:03:09;;;;;;;22.25;13.75;;;;;;;-4.09;84.75;102195.88;5068805;28;20048;-74
2022/03/09 04:05:34;;;;;;;19.70;12.35;;;;;;;-4.11;84.98;102199.34;5070196;28;20080;-74
2022/03/09 04:08:00;;;;;;;25.52;14.05;;;;;;;-4.14;84.36;102197.63;5077234;28;20041;-74
2022/03/09 04:10:25;;;;;;;20.75;12.25;;;;;;;-4.13;84.91;102203.72;5076217;28;20043;-74
2022/03/09 04:12:51;;;;;;;24.25;13.85;;;;;;;-4.13;85.16;102201.13;5075458;28;20036;-73
2022/03/09 04:15:16;;;;;;;22.20;14.15;;;;;;;-4.14;85.73;102195.03;5073361;28;20473;-73
2022/03/09 04:17:43;;;;;;;24.55;13.98;;;;;;;-4.14;85.66;102201.97;5073028;28;20028;-75
2022/03/09 04:20:11;;;;;;;24.95;13.05;;;;;;;-4.15;85.62;102195.03;5073250;28;20028;-74
2022/03/09 04:22:37;;;;;;;23.52;13.80;;;;;;;-4.16;85.33;102195.94;5072957;28;20078;-74
2022/03/09 04:25:03;;;;;;;21.55;13.48;;;;;;;-4.16;85.14;102196.78;5072491;28;20029;-74
2022/03/09 04:27:28;;;;;;;24.98;13.35;;;;;;;-4.16;85.79;102193.34;5072676;28;20173;-74
2022/03/09 04:29:54;;;;;;;24.13;14.10;;;;;;;-4.15;85.84;102195.03;5070918;28;20432;-73
2022/03/09 04:32:19;;;;;;;21.17;13.50;;;;;;;-4.16;85.97;102194.19;5070640;28;20098;-74
2022/03/09 04:34:44;;;;;;;24.70;14.45;;;;;;;-4.13;86.09;102195.91;5072402;28;20052;-73
2022/03/09 04:37:10;;;;;;;27.77;13.80;;;;;;;-4.10;86.36;102196.75;5072337;28;20518;-74
2022/03/09 04:39:35;;;;;;;23.65;13.13;;;;;;;-4.08;86.19;102191.53;5072369;28;20418;-75
2022/03/09 04:42:01;;;;;;;18.08;12.65;;;;;;;-4.08;86.06;102199.34;5072416;28;20040;-75
2022/03/09 04:44:26;;;;;;;29.90;13.75;;;;;;;-4.06;86.16;102197.59;5054062;28;20037;-75
2022/03/09 04:46:51;;;;;;;20.33;13.23;;;;;;;-4.05;86.48;102195.84;5072205;28;20460;-74
2022/03/09 04:49:17;;;;;;;23.45;13.77;;;;;;;-4.08;86.19;102194.97;5072095;28;20082;-74
2022/03/09 04:51:42;;;;;;;23.50;14.27;;;;;;;-4.09;86.57;102195.88;5072435;28;20054;-76
2022/03/09 04:54:08;;;;;;;20.60;13.20;;;;;;;-4.09;86.30;102203.69;5072139;28;20113;-75
2022/03/09 04:56:33;;;;;;;21.38;13.52;;;;;;;-4.07;86.62;102199.31;5072056;28;20028;-74
2022/03/09 04:58:59;;;;;;;22.02;13.75;;;;;;;-4.06;86.70;102202.81;5072078;28;20451;-75
2022/03/09 05:01:24;;;;;;;21.58;13.38;;;;;;;-4.08;86.16;102196.72;5071635;28;20120;-75
2022/03/09 05:03:49;;;;;;;23.35;13.75;;;;;;;-4.09;86.36;102200.19;5071606;28;20044;-75
2022/03/09 05:06:16;;;;;;;21.63;13.20;;;;;;;-4.10;86.42;102204.53;5070415;28;20342;-75
2022/03/09 05:08:41;;;;;;;21.13;12.70;;;;;;;-4.12;85.98;102208.03;5071741;28;20032;-74
2022/03/09 05:11:07;;;;;;;26.30;12.85;;;;;;;-4.14;86.23;102205.44;5071799;28;20517;-75
2022/03/09 05:13:32;;;;;;;22.50;12.88;;;;;;;-4.17;85.88;102212.41;5072126;28;20032;-74
2022/03/09 05:15:58;;;;;;;22.50;12.68;;;;;;;-4.18;85.91;102219.34;5069876;28;20368;-75
2022/03/09 05:18:23;;;;;;;21.73;12.80;;;;;;;-4.19;85.44;102214.16;5071632;28;20032;-75
2022/03/09 05:20:49;;;;;;;23.05;13.15;;;;;;;-4.23;85.36;102210.72;5071715;28;20104;-75
2022/03/09 05:23:14;;;;;;;24.13;12.05;;;;;;;-4.26;85.34;102208.97;5071500;28;20033;-74
2022/03/09 05:25:40;;;;;;;21.92;12.27;;;;;;;-4.28;85.19;102209.88;5070192;28;20134;-74
2022/03/09 05:28:05;;;;;;;24.40;13.57;;;;;;;-4.30;85.49;102217.69;5071291;28;20035;-75
2022/03/09 05:30:31;;;;;;;20.88;12.57;;;;;;;-4.30;85.31;102219.41;5070009;28;20104;-75
2022/03/09 05:32:56;;;;;;;22.95;12.98;;;;;;;-4.32;85.41;102226.38;5085800;28;20059;-75
2022/03/09 05:35:21;;;;;;;25.27;13.10;;;;;;;-4.34;85.00;102222.94;5091386;28;20032;-74
2022/03/09 05:37:47;;;;;;;21.65;13.82;;;;;;;-4.34;84.93;102228.97;5091993;28;20028;-76
2022/03/09 05:40:14;;;;;;;21.30;12.02;;;;;;;-4.36;85.21;102229.84;5091393;28;20175;-74
2022/03/09 05:42:40;;;;;;;23.02;12.73;;;;;;;-4.38;85.42;102232.47;5091863;28;20136;-75
2022/03/09 05:45:06;;;;;;;22.58;12.45;;;;;;;-4.41;85.33;102232.47;5092149;28;20108;-73
2022/03/09 05:47:31;;;;;;;19.38;12.02;;;;;;;-4.43;85.44;102236.84;5091717;28;20368;-74
2022/03/09 05:49:58;;;;;;;22.90;12.50;;;;;;;-4.43;85.67;102232.50;5091949;28;20043;-74
2022/03/09 05:52:23;;;;;;;21.98;12.48;;;;;;;-4.44;85.39;102232.50;5091562;28;20156;-74
2022/03/09 05:54:49;;;;;;;20.20;12.98;;;;;;;-4.46;85.97;102229.91;5091182;28;20187;-74
2022/03/09 05:57:20;;;;;;;25.70;13.07;;;;;;;-4.48;85.53;102225.59;5091415;28;20036;-73
2022/03/09 05:59:46;;;;;;;20.83;12.93;;;;;;;-4.49;85.53;102229.06;5091016;28;20032;-74
2022/03/09 06:02:11;;;;;;;21.27;12.52;;;;;;;-4.49;85.74;102229.06;5073019;28;20057;-74
2022/03/09 06:04:37;;;;;;;19.90;12.27;;;;;;;-4.49;85.74;102229.06;5091079;28;20036;-74
2022/03/09 06:07:02;;;;;;;22.33;12.75;;;;;;;-4.51;85.84;102230.81;5055819;28;20055;-75
2022/03/09 06:09:28;;;;;;;21.17;13.02;;;;;;;-4.52;85.73;102237.75;5072220;28;20036;-73
2022/03/09 06:11:54;;;;;;;21.90;13.70;;;;;;;-4.51;85.74;102236.00;5090897;28;20028;-77
2022/03/09 06:14:19;;;;;;;36.97;17.52;;;;;;;-4.52;85.71;102237.75;5072978;28;20440;-75
2022/03/09 06:16:47;;;;;;;31.13;16.80;;;;;;;-4.51;86.25;102231.69;5091684;28;20530;-76
2022/03/09 06:19:16;;;;;;;25.58;15.40;;;;;;;-4.51;86.34;102236.88;5091308;28;20140;-74
2022/03/09 06:21:42;;;;;;;24.95;15.40;;;;;;;-4.50;86.50;102243.78;5090751;28;20036;-76
2022/03/09 06:24:07;;;;;;;23.45;13.68;;;;;;;-4.49;86.60;102234.28;5090866;28;20388;-78
2022/03/09 06:26:33;;;;;;;23.98;14.00;;;;;;;-4.46;86.49;102240.31;5091241;28;20130;-73
2022/03/09 06:28:58;;;;;;;22.05;13.57;;;;;;;-4.43;86.38;102245.47;5089865;28;20047;-77
2022/03/09 06:31:24;;;;;;;30.85;17.48;;;;;;;-4.39;86.71;102243.72;5090422;28;20451;-75
2022/03/09 06:33:49;;;;;;;32.33;18.20;;;;;;;-4.34;86.53;102246.31;5090739;28;20325;-76
2022/03/09 06:36:15;;;;;;;30.02;17.67;;;;;;;-4.31;86.56;102246.28;5091225;28;20044;-77
2022/03/09 06:38:41;;;;;;;35.65;17.48;;;;;;;-4.26;86.94;102249.72;5091060;28;20101;-77
2022/03/09 06:41:06;;;;;;;28.75;15.82;;;;;;;-4.23;86.95;102247.09;5090688;28;20429;-75
2022/03/09 06:43:32;;;;;;;27.10;15.63;;;;;;;-4.19;86.83;102245.34;5090636;28;20078;-79
2022/03/09 06:45:57;;;;;;;24.60;13.98;;;;;;;-4.16;87.24;102243.59;5072145;28;20032;-78
2022/03/09 06:48:22;;;;;;;24.63;13.50;;;;;;;-4.09;87.43;102247.88;5090345;28;20036;-79
2022/03/09 06:50:48;;;;;;;20.73;12.90;;;;;;;-4.03;87.20;102240.91;5072442;28;20346;-76
2022/03/09 06:53:13;;;;;;;22.45;13.65;;;;;;;-3.95;87.47;102247.78;5090590;28;20036;-78
2022/03/09 06:55:39;;;;;;;18.88;12.57;;;;;;;-3.87;87.76;102252.06;5055896;28;20066;-80
2022/03/09 06:58:04;;;;;;;21.73;13.23;;;;;;;-3.79;88.02;102252.84;5055722;28;20036;-82
2022/03/09 07:00:30;;;;;;;24.65;14.63;;;;;;;-3.69;88.13;102254.50;5038782;28;20032;-77
2022/03/09 07:02:56;;;;;;;21.30;13.23;;;;;;;-3.59;88.19;102255.28;5072290;28;20047;-76
2022/03/09 07:05:22;;;;;;;23.00;13.80;;;;;;;-3.50;87.88;102256.97;5090511;28;20437;-75
2022/03/09 07:07:48;;;;;;;26.95;14.15;;;;;;;-3.41;88.35;102259.47;5090483;28;20039;-77
2022/03/09 07:10:14;;;;;;;21.20;13.15;;;;;;;-3.30;88.27;102261.97;5090488;28;20425;-78
2022/03/09 07:12:42;;;;;;;20.42;12.43;;;;;;;-3.17;88.25;102260.09;5072272;28;20032;-79
2022/03/09 07:15:08;;;;;;;24.60;13.90;;;;;;;-3.02;88.47;102262.53;5071966;28;20063;-78
2022/03/09 07:17:34;;;;;;;23.98;14.00;;;;;;;-2.88;88.69;102258.03;5090465;28;20172;-77
2022/03/09 07:19:59;;;;;;;24.75;13.82;;;;;;;-2.74;88.38;102265.69;5090460;28;20471;-77
2022/03/09 07:22:24;;;;;;;23.10;14.73;;;;;;;-2.63;88.19;102262.94;5090621;28;20119;-74
2022/03/09 07:24:50;;;;;;;23.15;13.70;;;;;;;-2.50;87.59;102263.66;5090533;28;20024;-76
2022/03/09 07:27:15;;;;;;;19.90;13.38;;;;;;;-2.35;87.70;102265.19;5072109;28;20347;-76
2022/03/09 07:29:41;;;;;;;22.60;14.23;;;;;;;-2.21;87.49;102271.09;5071574;28;20039;-76
2022/03/09 07:32:08;;;;;;;23.23;14.63;;;;;;;-2.05;87.56;102260.41;5089842;28;20101;-75
2022/03/09 07:34:34;;;;;;;21.88;13.75;;;;;;;-1.87;87.34;102269.72;5089680;28;20062;-78
2022/03/09 07:36:59;;;;;;;21.33;13.23;;;;;;;-1.69;87.61;102272.00;5090263;28;20074;-78
2022/03/09 07:39:27;;;;;;;24.98;14.45;;;;;;;-1.50;87.39;102279.56;5091041;28;20035;-73
2022/03/09 07:41:53;;;;;;;20.88;13.57;;;;;;;-1.29;86.81;102280.94;5075635;28;20073;-76
2022/03/09 07:44:19;;;;;;;22.25;14.30;;;;;;;-1.08;86.15;102279.66;5075825;28;20123;-77
2022/03/09 07:46:45;;;;;;;21.80;14.77;;;;;;;-0.86;85.55;102282.75;5093758;28;20421;-76
2022/03/09 07:49:10;;;;;;;24.02;14.07;;;;;;;-0.62;83.62;102281.38;5093565;28;20036;-78
2022/03/09 07:51:36;;;;;;;22.27;13.45;;;;;;;-0.30;79.28;102276.34;5075410;28;20082;-77
2022/03/09 07:54:01;;;;;;;21.20;13.63;;;;;;;0.02;77.28;102287.88;5075346;28;20024;-77
2022/03/09 07:56:26;;;;;;;19.15;12.70;;;;;;;0.29;76.22;102275.88;5093530;28;20040;-75
2022/03/09 07:58:52;;;;;;;23.17;12.68;;;;;;;0.54;73.55;102281.38;5075547;28;20043;-74
2022/03/09 08:01:17;;;;;;;18.67;11.15;;;;;;;0.76;73.67;102278.16;5058885;28;20035;-77
2022/03/09 08:03:44;;;;;;;20.50;12.63;;;;;;;0.93;71.53;102281.22;5093138;28;20071;-77
2022/03/09 08:06:09;;;;;;;21.05;12.50;;;;;;;1.13;70.33;102277.19;5093105;28;20440;-76
2022/03/09 08:08:35;;;;;;;20.77;12.45;;;;;;;1.32;68.89;102281.00;5074787;28;20032;-75
2022/03/09 08:11:00;;;;;;;21.63;12.43;;;;;;;1.51;68.00;102273.47;5093213;28;20088;-76
2022/03/09 08:13:26;;;;;;;18.60;12.38;;;;;;;1.70;67.25;102278.13;5058411;28;20335;-77
2022/03/09 08:15:51;;;;;;;19.35;12.18;;;;;;;1.88;66.89;102281.97;5093071;28;20028;-79
2022/03/09 08:18:17;;;;;;;18.45;12.18;;;;;;;2.06;65.23;102285.78;5093195;28;20043;-76
2022/03/09 08:20:42;;;;;;;19.88;12.27;;;;;;;2.25;63.58;102281.66;5093153;28;20040;-78
2022/03/09 08:23:08;;;;;;;24.98;11.52;;;;;;;2.46;63.01;102273.97;5093737;28;20471;-78
2022/03/09 08:25:34;;;;;;;21.27;11.73;;;;;;;2.68;62.63;102279.38;5074897;28;20488;-77
2022/03/09 08:28:01;;;;;;;27.23;12.23;;;;;;;2.92;59.92;102282.91;5093046;28;20339;-77
2022/03/09 08:30:27;;;;;;;25.10;12.10;;;;;;;3.16;59.60;102286.47;5093253;28;20117;-76
2022/03/09 08:32:52;;;;;;;20.10;12.48;;;;;;;3.40;58.49;102283.81;5075017;28;20101;-75
2022/03/09 08:35:18;;;;;;;23.75;13.40;;;;;;;3.71;57.88;102285.28;5092941;28;20036;-76
2022/03/09 08:37:43;;;;;;;22.58;13.55;;;;;;;3.96;56.25;102287.81;5074590;28;20036;-79
2022/03/09 08:40:09;;;;;;;21.35;11.98;;;;;;;4.46;55.81;102281.41;5074965;28;20028;-78
2022/03/09 08:42:35;;;;;;;22.30;12.73;;;;;;;4.75;53.18;102280.19;5092442;28;20023;-77
2022/03/09 08:45:00;;;;;;;21.83;12.35;;;;;;;4.99;52.91;102279.19;5092800;28;20028;-78
2022/03/09 08:47:26;;;;;;;21.92;12.65;;;;;;;5.32;52.15;102275.97;5057904;28;20032;-76
2022/03/09 08:49:52;;;;;;;20.63;13.52;;;;;;;5.25;51.97;102275.38;5092658;28;20379;-75
2022/03/09 08:52:17;;;;;;;19.35;13.02;;;;;;;5.20;51.07;102274.75;5092216;28;20027;-75
2022/03/09 08:54:43;;;;;;;20.50;11.65;;;;;;;5.33;50.56;102272.38;5074498;28;20044;-77
2022/03/09 08:57:08;;;;;;;22.92;12.55;;;;;;;5.51;49.95;102266.28;5093403;28;20044;-75
2022/03/09 08:59:35;;;;;;;16.60;12.27;;;;;;;5.84;50.70;102281.47;5091989;28;20441;-76
2022/03/09 09:02:00;;;;;;;20.05;12.20;;;;;;;6.58;48.35;102282.31;5092245;28;20132;-74
2022/03/09 09:04:26;;;;;;;22.40;12.40;;;;;;;7.70;46.69;102283.44;5091833;28;20401;-77
2022/03/09 09:06:52;;;;;;;17.10;12.15;;;;;;;8.85;43.21;102283.91;5092389;28;20043;-76
2022/03/09 09:09:17;;;;;;;16.45;12.65;;;;;;;10.23;40.26;102282.31;5092113;28;20548;-77
2022/03/09 09:11:47;;;;;;;22.95;12.30;;;;;;;11.39;37.50;102287.78;5074175;28;20036;-77
2022/03/09 09:14:13;;;;;;;21.23;12.82;;;;;;;11.92;36.24;102290.19;5092297;28;20214;-77
2022/03/09 09:16:41;;;;;;;21.85;13.38;;;;;;;12.37;34.44;102289.56;5092004;28;20134;-78
2022/03/09 09:19:07;;;;;;;23.65;13.40;;;;;;;12.89;33.36;102292.75;5074096;28;20032;-76
2022/03/09 09:21:32;;;;;;;22.27;14.23;;;;;;;13.50;32.11;102292.47;5073646;28;20062;-75
2022/03/09 09:23:58;;;;;;;19.80;12.73;;;;;;;13.58;31.73;102287.34;5092010;28;20050;-74
2022/03/09 09:26:23;;;;;;;24.88;13.35;;;;;;;13.58;31.94;102294.50;5073099;28;20386;-72
2022/03/09 09:28:48;;;;;;;21.02;12.93;;;;;;;13.28;32.99;102293.28;5091690;28;20044;-76
2022/03/09 09:31:14;;;;;;;20.10;13.25;;;;;;;13.40;31.67;102288.81;5091662;28;20432;-75
2022/03/09 09:33:39;;;;;;;20.48;13.57;;;;;;;12.72;31.88;102285.19;5092040;28;20087;-77
2022/03/09 09:36:05;;;;;;;25.48;14.25;;;;;;;12.76;32.26;102289.34;5091507;28;20039;-78
2022/03/09 09:38:31;;;;;;;23.48;14.13;;;;;;;13.25;31.39;102284.66;5091841;28;20084;-83
2022/03/09 09:40:56;;;;;;;19.95;14.70;;;;;;;13.17;31.36;102278.09;5073650;28;20453;-75
2022/03/09 09:43:24;;;;;;;18.67;13.40;;;;;;;13.29;30.69;102281.63;5091731;28;20337;-74
2022/03/09 09:45:50;;;;;;;24.98;14.02;;;;;;;14.28;30.73;102274.47;5091471;28;20036;-73
2022/03/09 09:48:17;;;;;;;23.83;13.60;;;;;;;14.71;29.56;102280.75;5091508;28;20055;-74
2022/03/09 09:50:43;;;;;;;30.05;17.10;;;;;;;15.07;29.10;102277.72;5091090;28;20341;-74
2022/03/09 09:53:11;;;;;;;24.35;15.13;;;;;;;14.67;29.56;102278.47;5073107;28;20042;-74
2022/03/09 09:55:38;;;;;;;24.23;15.02;;;;;;;15.56;28.52;102288.66;5091554;28;20066;-75
2022/03/09 09:58:03;;;;;;;21.92;15.15;;;;;;;14.99;27.67;102281.06;5072737;28;20384;-73
2022/03/09 10:00:30;;;;;;;23.08;14.70;;;;;;;15.28;28.96;102278.50;5091225;28;20057;-74
2022/03/09 10:02:56;;;;;;;24.50;15.52;;;;;;;15.80;27.94;102278.41;5091257;28;20109;-73
2022/03/09 10:05:22;;;;;;;26.38;15.25;;;;;;;16.36;28.03;102284.97;5056206;28;20062;-76
2022/03/09 10:08:05;;;;;;;30.95;15.05;;;;;;;16.36;27.53;102276.03;5091448;28;20028;-74
2022/03/09 10:10:31;;;;;;;26.33;15.50;;;;;;;16.47;27.23;102283.13;5091181;28;20071;-74
2022/03/09 10:13:17;;;;;;;24.23;15.02;;;;;;;16.92;26.54;102290.56;5091038;28;20069;-73
2022/03/09 10:15:45;;;;;;;25.48;16.30;;;;;;;17.05;26.04;102298.31;5091185;28;20028;-74
2022/03/09 10:18:19;;;;;;;26.60;16.38;;;;;;;17.10;26.17;102291.47;5091076;28;20043;-72
2022/03/09 10:20:46;;;;;;;29.63;16.33;;;;;;;17.15;25.79;102290.19;5090795;28;20110;-75
2022/03/09 10:23:13;;;;;;;29.58;16.77;;;;;;;17.52;25.30;102287.47;5090872;28;20123;-74
2022/03/09 10:25:40;;;;;;;24.08;17.23;;;;;;;18.09;24.26;102286.44;5072778;28;20032;-75
2022/03/09 10:28:09;;;;;;;29.45;17.40;;;;;;;17.22;25.60;102288.63;5090721;28;20040;-72
2022/03/09 10:30:39;;;;;;;22.95;16.10;;;;;;;18.17;25.31;102285.66;5072136;28;20071;-75
2022/03/09 10:33:08;;;;;;;31.33;17.13;;;;;;;18.48;25.14;102284.28;5090709;28;20467;-75
2022/03/09 10:35:33;;;;;;;26.95;18.00;;;;;;;18.46;24.15;102291.66;5091445;28;20040;-75
2022/03/09 10:38:01;;;;;;;33.40;18.67;;;;;;;17.78;24.78;102287.63;5092456;28;20329;-75
2022/03/09 10:40:29;;;;;;;26.25;17.88;;;;;;;18.38;24.92;102288.91;5074540;28;20539;-77
2022/03/09 10:43:16;;;;;;;26.02;17.80;;;;;;;18.38;24.01;102296.16;5090719;28;20032;-75
2022/03/09 10:46:11;;;;;;;26.25;17.00;;;;;;;18.86;24.75;102289.44;5090121;28;20060;-74
2022/03/09 10:48:57;;;;;;;30.35;16.88;;;;;;;19.47;23.28;102295.66;5090157;28;20040;-74
2022/03/09 10:51:37;;;;;;;26.85;17.83;;;;;;;19.18;23.66;102298.72;5089822;28;20032;-76
2022/03/09 10:54:05;;;;;;;30.85;18.95;;;;;;;18.85;24.49;102296.72;5089921;28;20111;-78
2022/03/09 10:56:32;;;;;;;30.35;18.55;;;;;;;18.61;23.83;102289.25;5090208;28;20062;-75
2022/03/09 10:59:09;;;;;;;28.60;18.65;;;;;;;19.03;23.99;102295.78;5090447;28;20024;-76
2022/03/09 11:01:35;;;;;;;31.13;18.35;;;;;;;18.66;23.55;102286.06;5090195;28;20031;-74
2022/03/09 11:04:11;;;;;;;32.67;18.85;;;;;;;18.51;24.50;102296.56;5090658;28;20024;-73
2022/03/09 11:06:36;;;;;;;30.60;19.83;;;;;;;17.79;25.23;102291.16;5090445;28;20044;-75
2022/03/09 11:09:02;;;;;;;30.65;19.80;;;;;;;17.72;26.08;102288.22;5071879;28;20402;-77